»·PEaware :: N647RG KWHP-KBFL

N647RG :: KWHP-KBFL

FLIGHT INFORMATION

Flight Status: Arrived
Operator: Privately registered:
United States
More flights under this callsign
Pilot: Jerome R. (37648)
Aircraft: BEECH AIRCRAFT BONANZA
(BE36)
More flights by this aircraft type
Origin: KWHP Whiteman
United States
Destination: KBFL Meadows
United States
More flights between these airports :: More routes between these airports
Route: WHP1 VNY GMN FASTO2
File this flight plan on PilotEdge
Remarks:
Altitude:
(Current/Filed)
10,000ft
Speed:
(Current/Filed)
169kts
Departed: 05-Nov-23 05:32 PM
Arrived: 05-Nov-23 06:10 PM
Distance/Time
Traveled:
77nm/0:37
Distance/Time
To Go:
Arrived

Flight Plot

Page will automatically refresh every two minutes.

Flight plan parsing failed; only flown route is shown


Map Options




Map Legend


Flown Route
Filed Route
Departure Airport
Arrival Airport
Navaid (VOR, NDB)
Fix

Horizontal Profiles

Position Reports

Time Latitude Longitude Heading Altitude Ground
Speed
05-Nov-23 17:11 34.260891 -118.412411 220 978ft 0kts
05-Nov-23 17:12 34.260891 -118.412411 220 978ft 0kts
05-Nov-23 17:13 34.260891 -118.412411 220 978ft 0kts
05-Nov-23 17:14 34.260891 -118.412411 220 978ft 0kts
05-Nov-23 17:15 34.260891 -118.412411 220 978ft 0kts
05-Nov-23 17:16 34.260891 -118.412411 220 978ft 0kts
05-Nov-23 17:17 34.260891 -118.412411 220 978ft 0kts
05-Nov-23 17:18 34.260891 -118.412411 220 978ft 0kts
05-Nov-23 17:19 34.260891 -118.412412 220 978ft 0kts
05-Nov-23 17:20 34.260891 -118.412412 220 978ft 0kts
05-Nov-23 17:21 34.260891 -118.412411 220 978ft 0kts
05-Nov-23 17:22 34.260891 -118.412411 220 978ft 0kts
05-Nov-23 17:23 34.260891 -118.412412 220 979ft 0kts
05-Nov-23 17:24 34.260588 -118.412678 201 980ft 0kts
05-Nov-23 17:25 34.260588 -118.412678 200 980ft 0kts
05-Nov-23 17:26 34.260970 -118.414624 316 982ft 13kts
05-Nov-23 17:27 34.263091 -118.416812 317 988ft 0kts
05-Nov-23 17:28 34.263234 -118.416964 319 988ft 0kts
05-Nov-23 17:29 34.263659 -118.417470 305 990ft 1kts
05-Nov-23 17:30 34.263574 -118.417779 210 991ft 7kts
05-Nov-23 17:31 34.246853 -118.414886 246 1973ft 110kts
05-Nov-23 17:32 34.236195 -118.450896 243 3647ft 102kts
05-Nov-23 17:33 34.224439 -118.480178 278 5191ft 103kts
05-Nov-23 17:34 34.244908 -118.505330 334 6236ft 120kts
05-Nov-23 17:35 34.270657 -118.522840 333 7245ft 110kts
05-Nov-23 17:36 34.298311 -118.535676 331 8387ft 105kts
05-Nov-23 17:37 34.325048 -118.550531 326 9423ft 104kts
05-Nov-23 17:38 34.352032 -118.568620 327 10039ft 122kts
05-Nov-23 17:39 34.385057 -118.587764 330 10083ft 139kts
05-Nov-23 17:40 34.420406 -118.609933 322 10020ft 148kts
05-Nov-23 17:41 34.456980 -118.635201 323 10140ft 158kts
05-Nov-23 17:42 34.495789 -118.662269 322 10083ft 160kts
05-Nov-23 17:43 34.534399 -118.689439 322 10111ft 159kts
05-Nov-23 17:44 34.572759 -118.716652 323 10040ft 163kts
05-Nov-23 17:45 34.612051 -118.744242 323 9908ft 162kts
05-Nov-23 17:46 34.651614 -118.766744 331 9964ft 160kts
05-Nov-23 17:47 34.690742 -118.790895 326 10038ft 159kts
05-Nov-23 17:48 34.730041 -118.815405 326 10054ft 160kts
05-Nov-23 17:49 34.770596 -118.837964 327 10023ft 162kts
05-Nov-23 17:50 34.812378 -118.856846 352 9974ft 172kts
05-Nov-23 17:51 34.858261 -118.853434 354 9739ft 155kts
05-Nov-23 17:52 34.901571 -118.850738 355 9080ft 152kts
05-Nov-23 17:53 34.942750 -118.848381 352 8333ft 147kts
05-Nov-23 17:54 34.983819 -118.851805 349 7472ft 148kts
05-Nov-23 17:55 35.024269 -118.854641 352 6617ft 143kts
05-Nov-23 17:56 35.062894 -118.857331 352 5841ft 134kts
05-Nov-23 17:57 35.102427 -118.860780 354 5244ft 145kts
05-Nov-23 17:58 35.141075 -118.863402 355 4282ft 138kts
05-Nov-23 17:59 35.181256 -118.862664 3 3354ft 148kts
05-Nov-23 18:00 35.222135 -118.858935 3 2721ft 145kts
05-Nov-23 18:01 35.260862 -118.856878 348 2503ft 139kts
05-Nov-23 18:02 35.291206 -118.884033 314 2297ft 134kts
05-Nov-23 18:03 35.316877 -118.914589 315 2522ft 135kts
05-Nov-23 18:04 35.343637 -118.946339 316 2445ft 130kts
05-Nov-23 18:05 35.370546 -118.978503 316 2028ft 139kts
05-Nov-23 18:06 35.394604 -119.009837 318 1420ft 98kts
05-Nov-23 18:07 35.413669 -119.032090 316 784ft 100kts
05-Nov-23 18:09 35.431105 -119.052974 318 488ft 60kts
05-Nov-23 18:10 35.435681 -119.058020 342 495ft 11kts
05-Nov-23 18:11 35.435433 -119.055798 135 492ft 25kts
05-Nov-23 18:12 35.431170 -119.050388 33 481ft 7kts

Navigation Log

Ident Type
Flight plan parsing failed, navigation log unavailable